Time;durP1;ratioP1;P1;durP2;ratioP2;P2;SDS_P1;SDS_P2;PMS_P1;PMS_P2;Temp;Humidity;BMP_temperature;BMP_pressure;BME280_temperature;BME280_humidity;BME280_pressure;Samples;Min_cycle;Max_cycle;Signal;HPM_P1;HPM_P2
2022/08/08 00:01:30;;;;;;;8.40;5.40;;;;;;;;;;4822666;29;20506;-84
2022/08/08 00:04:02;;;;;;;7.90;5.00;;;;;;;;;;4822317;29;20073;-86
2022/08/08 00:06:41;;;;;;;10.13;4.68;;;;;;;;;;4816545;29;20045;-87
2022/08/08 00:09:11;;;;;;;6.35;4.72;;;;;;;;;;4818929;29;20043;-85
2022/08/08 00:11:42;;;;;;;5.72;4.90;;;;;;;;;;4818876;29;20095;-87
2022/08/08 00:14:11;;;;;;;6.60;4.85;;;;;;;;;;4822490;29;20065;-89
2022/08/08 00:17:21;;;;;;;6.43;4.45;;;;;;;;;;4818063;29;20710;-88
2022/08/08 00:19:56;;;;;;;8.95;4.80;;;;;;;;;;4750011;30;20067;-87
2022/08/08 00:22:25;;;;;;;6.20;5.05;;;;;;;;;;4764357;30;20052;-84
2022/08/08 00:24:53;;;;;;;10.88;4.82;;;;;;;;;;4782762;29;20062;-89
2022/08/08 00:27:20;;;;;;;7.80;4.85;;;;;;;;;;4821307;29;20041;-86
2022/08/08 00:29:46;;;;;;;9.15;4.60;;;;;;;;;;4815378;29;20094;-83
2022/08/08 00:32:19;;;;;;;12.27;5.65;;;;;;;;;;4836105;29;20110;-84
2022/08/08 00:37:39;;;;;;;7.10;5.68;;;;;;;;;;4827148;29;20495;-85
2022/08/08 00:40:24;;;;;;;8.02;4.60;;;;;;;;;;4825150;29;20054;-85
2022/08/08 00:42:53;;;;;;;9.10;5.15;;;;;;;;;;4808477;29;20103;-89
2022/08/08 00:45:22;;;;;;;7.45;5.30;;;;;;;;;;4829487;29;20054;-88
2022/08/08 00:47:48;;;;;;;8.00;5.30;;;;;;;;;;4811638;29;20034;-85
2022/08/08 00:50:20;;;;;;;6.78;5.45;;;;;;;;;;4806148;29;20163;-88
2022/08/08 00:52:46;;;;;;;13.88;5.85;;;;;;;;;;4807560;29;20524;-86
2022/08/08 00:55:31;;;;;;;8.05;5.28;;;;;;;;;;4809263;29;20072;-87
2022/08/08 00:58:16;;;;;;;9.50;5.65;;;;;;;;;;4804701;29;20046;-86
2022/08/08 01:00:42;;;;;;;9.48;5.00;;;;;;;;;;4798657;29;20057;-85
2022/08/08 01:03:22;;;;;;;7.45;4.55;;;;;;;;;;4796143;29;20511;-89
2022/08/08 01:06:06;;;;;;;7.20;4.60;;;;;;;;;;4816308;29;20047;-84
2022/08/08 01:08:51;;;;;;;11.50;5.80;;;;;;;;;;4804254;29;20088;-86
2022/08/08 01:11:26;;;;;;;9.88;5.00;;;;;;;;;;4802779;29;20042;-84
2022/08/08 01:14:11;;;;;;;10.63;5.90;;;;;;;;;;4805166;29;20124;-88
2022/08/08 01:16:49;;;;;;;8.85;6.70;;;;;;;;;;4801307;29;20058;-84
2022/08/08 01:19:44;;;;;;;9.60;5.80;;;;;;;;;;4824368;29;20063;-86
2022/08/08 01:22:20;;;;;;;11.77;7.78;;;;;;;;;;4802611;29;20043;-85
2022/08/08 01:24:55;;;;;;;8.90;6.47;;;;;;;;;;4802790;29;20043;-88
2022/08/08 01:27:50;;;;;;;10.02;5.22;;;;;;;;;;4800967;29;20055;-89
2022/08/08 01:30:29;;;;;;;11.40;5.88;;;;;;;;;;4788628;29;20073;-84
2022/08/08 01:33:01;;;;;;;8.75;5.45;;;;;;;;;;4800437;29;20107;-86
2022/08/08 01:35:27;;;;;;;9.35;5.15;;;;;;;;;;4799009;29;20047;-83
2022/08/08 01:37:56;;;;;;;9.38;5.15;;;;;;;;;;4798969;29;20046;-85
2022/08/08 01:40:25;;;;;;;15.50;5.55;;;;;;;;;;4799151;29;21156;-85
2022/08/08 01:42:58;;;;;;;7.10;5.10;;;;;;;;;;4795227;29;20093;-84
2022/08/08 01:45:33;;;;;;;6.47;4.90;;;;;;;;;;4799806;29;20046;-86
2022/08/08 01:48:04;;;;;;;10.68;5.00;;;;;;;;;;4799262;29;20042;-87
2022/08/08 01:50:33;;;;;;;14.00;6.03;;;;;;;;;;4795445;29;20110;-84
2022/08/08 01:53:14;;;;;;;9.07;5.72;;;;;;;;;;4804150;29;20063;-87
2022/08/08 01:55:59;;;;;;;16.27;5.15;;;;;;;;;;4804564;29;20049;-86
2022/08/08 01:58:44;;;;;;;13.25;5.10;;;;;;;;;;4797040;29;20043;-88
2022/08/08 02:01:19;;;;;;;11.63;5.75;;;;;;;;;;4796516;29;20047;-86
2022/08/08 02:03:48;;;;;;;15.85;6.63;;;;;;;;;;4796987;29;20043;-85
2022/08/08 02:06:33;;;;;;;6.28;4.88;;;;;;;;;;4800545;29;20047;-82
2022/08/08 02:08:59;;;;;;;10.98;4.70;;;;;;;;;;4796437;29;20054;-86
2022/08/08 02:11:38;;;;;;;9.35;5.50;;;;;;;;;;4803414;29;20115;-85
2022/08/08 02:14:23;;;;;;;6.95;4.93;;;;;;;;;;4803326;29;20063;-87
2022/08/08 02:16:59;;;;;;;7.50;4.65;;;;;;;;;;4807323;29;20071;-84
2022/08/08 02:19:31;;;;;;;13.52;5.68;;;;;;;;;;4807344;29;20038;-84
2022/08/08 02:22:30;;;;;;;11.77;4.93;;;;;;;;;;4803541;29;20080;-86
2022/08/08 02:25:06;;;;;;;6.60;4.95;;;;;;;;;;4801967;29;20039;-86
2022/08/08 02:27:58;;;;;;;9.77;5.47;;;;;;;;;;4804607;29;20122;-88
2022/08/08 02:30:28;;;;;;;13.05;5.32;;;;;;;;;;4803776;29;20051;-86
2022/08/08 02:33:09;;;;;;;8.85;5.43;;;;;;;;;;4807887;29;20542;-85
2022/08/08 02:35:54;;;;;;;7.85;5.43;;;;;;;;;;4800657;29;20073;-85
2022/08/08 02:38:39;;;;;;;8.00;5.28;;;;;;;;;;4802719;29;20043;-85
2022/08/08 02:41:11;;;;;;;12.75;5.50;;;;;;;;;;4805714;29;20531;-86
2022/08/08 02:43:40;;;;;;;8.35;5.30;;;;;;;;;;4791947;29;20061;-85
2022/08/08 02:46:12;;;;;;;10.40;5.28;;;;;;;;;;4812267;29;20108;-85
2022/08/08 02:49:15;;;;;;;14.13;6.40;;;15.60;99.90;;;;;;4804353;29;20074;-85
2022/08/08 02:51:50;;;;;;;14.35;5.90;;;;;;;;;;4801592;29;20508;-85
2022/08/08 02:54:23;;;;;;;10.98;5.30;;;;;;;;;;4796628;29;20046;-85
2022/08/08 02:56:58;;;;;;;15.93;5.68;;;;;;;;;;4798846;29;20553;-87
2022/08/08 02:59:43;;;;;;;10.10;5.65;;;;;;;;;;4815048;24;20119;-87
2022/08/08 03:02:28;;;;;;;8.73;5.30;;;;;;;;;;4821284;29;20070;-88
2022/08/08 03:05:32;;;;;;;10.20;5.88;;;15.50;99.90;;;;;;4820552;29;20054;-88
2022/08/08 03:08:19;;;;;;;9.70;5.32;;;15.40;99.90;;;;;;4820655;29;20050;-87
2022/08/08 03:11:01;;;;;;;10.27;4.90;;;;;;;;;;4806687;29;20047;-88
2022/08/08 03:13:36;;;;;;;7.15;5.68;;;;;;;;;;4820610;29;20089;-88
2022/08/08 03:16:14;;;;;;;8.50;5.32;;;;;;;;;;4817245;29;20038;-86
2022/08/08 03:18:49;;;;;;;12.93;5.65;;;;;;;;;;4819845;29;20053;-85
2022/08/08 03:21:16;;;;;;;8.48;5.07;;;;;;;;;;4816099;29;20057;-83
2022/08/08 03:23:42;;;;;;;13.70;5.90;;;;;;;;;;4818349;29;20072;-83
2022/08/08 03:26:08;;;;;;;14.18;5.43;;;;;;;;;;4809776;29;20085;-82
2022/08/08 03:28:46;;;;;;;15.80;5.50;;;;;;;;;;4819044;29;20503;-84
2022/08/08 03:33:57;;;;;;;11.13;6.28;;;;;;;;;;4823867;29;20050;-85
2022/08/08 03:36:26;;;;;;;12.98;5.85;;;;;;;;;;4834519;29;20138;-87
2022/08/08 03:38:52;;;;;;;10.82;6.32;;;;;;;;;;4829487;29;20050;-84
2022/08/08 03:41:18;;;;;;;16.90;6.45;;;;;;;;;;4826920;29;20046;-88
2022/08/08 03:43:55;;;;;;;12.73;6.38;;;;;;;;;;4823951;29;20038;-91
2022/08/08 03:46:21;;;;;;;11.80;6.18;;;;;;;;;;4823898;29;20051;-86
2022/08/08 03:49:01;;;;;;;11.15;5.80;;;;;;;;;;4821411;29;20098;-86
2022/08/08 03:51:28;;;;;;;10.00;5.97;;;;;;;;;;4818259;29;20046;-86
2022/08/08 03:53:54;;;;;;;12.90;6.68;;;;;;;;;;4817354;29;20049;-85
2022/08/08 03:56:22;;;;;;;10.48;5.95;;;;;;;;;;4817861;29;20053;-89
2022/08/08 03:58:48;;;;;;;16.58;6.20;;;;;;;;;;4823395;29;20069;-88
2022/08/08 04:01:14;;;;;;;12.40;6.38;;;;;;;;;;4822765;29;20042;-88
2022/08/08 04:03:44;;;;;;;12.90;6.40;;;;;;;;;;4816787;29;20043;-89
2022/08/08 04:06:10;;;;;;;8.60;6.40;;;;;;;;;;4818442;29;20046;-89
2022/08/08 04:08:37;;;;;;;14.20;5.97;;;;;;;;;;4818007;29;20053;-90
2022/08/08 04:11:04;;;;;;;11.93;6.20;;;;;;;;;;4812232;29;20512;-90
2022/08/08 04:13:30;;;;;;;13.50;6.50;;;;;;;;;;4820180;29;20050;-84
2022/08/08 04:16:12;;;;;;;10.68;6.53;;;;;;;;;;4820539;29;20043;-90
2022/08/08 04:18:38;;;;;;;8.95;5.70;;;;;;;;;;4822377;29;20042;-85
2022/08/08 04:21:04;;;;;;;13.95;6.68;;;;;;;;;;4818557;29;20061;-87
2022/08/08 04:23:30;;;;;;;15.00;7.00;;;;;;;;;;4818865;29;20045;-89
2022/08/08 04:25:56;;;;;;;12.40;6.95;;;;;;;;;;4824179;29;20067;-89
2022/08/08 04:28:22;;;;;;;8.75;6.45;;;;;;;;;;4841910;29;20030;-89
2022/08/08 04:30:48;;;;;;;11.80;6.30;;;;;;;;;;4829971;29;20063;-87
2022/08/08 04:33:15;;;;;;;11.85;6.47;;;;;;;;;;4823999;29;20057;-88
2022/08/08 04:35:41;;;;;;;12.95;5.80;;;;;;;;;;4824278;29;20217;-88
2022/08/08 04:38:07;;;;;;;9.77;6.15;;;;;;;;;;4822811;29;20486;-86
2022/08/08 04:40:33;;;;;;;16.92;6.45;;;;;;;;;;4823763;29;20052;-91
2022/08/08 04:42:59;;;;;;;18.95;6.72;;;;;;;;;;4824627;29;20042;-90
2022/08/08 04:45:26;;;;;;;15.27;6.65;;;;;;;;;;4822706;29;20079;-86
2022/08/08 04:47:52;;;;;;;12.93;6.50;;;;;;;;;;4823988;29;20054;-89
2022/08/08 04:50:24;;;;;;;9.10;6.20;;;;;;;;;;4815767;29;20620;-90
2022/08/08 04:52:50;;;;;;;15.40;6.40;;;;;;;;;;4825401;29;20038;-87
2022/08/08 04:55:17;;;;;;;7.70;6.15;;;;;;;;;;4819940;29;20038;-86
2022/08/08 04:57:46;;;;;;;8.63;6.05;;;;;;;;;;4824222;29;20067;-90
2022/08/08 05:00:13;;;;;;;12.43;6.15;;;;;;;;;;4822797;29;20058;-85
2022/08/08 05:02:39;;;;;;;10.63;6.20;;;;;;;;;;4824538;29;20051;-88
2022/08/08 05:05:05;;;;;;;11.32;5.70;;;;;;;;;;4804464;29;20739;-89
2022/08/08 05:07:31;;;;;;;9.15;5.88;;;;;;;;;;4821718;29;20043;-87
2022/08/08 05:09:58;;;;;;;9.50;5.25;;;;;;;;;;4820112;29;20050;-87
2022/08/08 05:12:24;;;;;;;13.30;7.47;;;;;;;;;;4820686;29;20042;-89
2022/08/08 05:14:50;;;;;;;13.05;6.18;;;;;;;;;;4805116;29;20130;-89
2022/08/08 05:17:16;;;;;;;9.00;5.90;;;;;;;;;;4826564;29;20061;-87
2022/08/08 05:19:52;;;;;;;12.23;6.07;;;;;;;;;;4823243;29;20061;-91
2022/08/08 05:22:18;;;;;;;9.77;5.32;;;;;;;;;;4820439;29;20079;-88
2022/08/08 05:24:44;;;;;;;9.10;5.78;;;;;;;;;;4819922;29;20046;-87
2022/08/08 05:27:10;;;;;;;17.15;5.93;;;;;;;;;;4809299;29;20053;-91
2022/08/08 05:29:36;;;;;;;11.60;6.35;;;;;;;;;;4826135;29;20114;-89
2022/08/08 05:32:02;;;;;;;12.75;6.28;;;;;;;;;;4824278;29;20073;-89
2022/08/08 05:34:36;;;;;;;10.50;5.90;;;;;;;;;;4819651;29;20039;-90
2022/08/08 05:37:03;;;;;;;13.90;6.03;;;;;;;;;;4821990;29;20054;-84
2022/08/08 05:39:30;;;;;;;15.48;6.07;;;;;;;;;;4822817;29;20034;-88
2022/08/08 05:41:57;;;;;;;13.77;5.82;;;;;;;;;;4820081;29;20050;-88
2022/08/08 05:44:25;;;;;;;15.43;5.95;;;;;;;;;;4824109;29;20061;-88
2022/08/08 05:46:55;;;;;;;10.25;5.80;;;;;;;;;;4824567;29;20038;-88
2022/08/08 05:49:21;;;;;;;13.52;5.53;;;;;;;;;;4819858;29;20058;-90
2022/08/08 05:51:49;;;;;;;9.45;5.25;;;;;;;;;;4819735;29;20042;-89
2022/08/08 05:54:15;;;;;;;8.70;6.10;;;;;;;;;;4820601;29;20042;-90
2022/08/08 05:56:43;;;;;;;14.32;6.07;;;;;;;;;;4822571;29;20042;-85
2022/08/08 05:59:19;;;;;;;11.38;5.95;;;;;;;;;;4770495;29;1165084;-87
2022/08/08 06:01:53;;;;;;;11.25;6.10;;;;;;;;;;4821725;29;20062;-88
2022/08/08 06:04:23;;;;;;;13.65;6.35;;;;;;;;;;4802194;29;20074;-87
2022/08/08 06:06:50;;;;;;;14.65;6.57;;;;;;;;;;4833548;29;20785;-87
2022/08/08 06:09:17;;;;;;;12.32;6.40;;;;;;;;;;4820540;29;20081;-86
2022/08/08 06:11:44;;;;;;;10.25;6.28;;;;;;;;;;4820239;29;20034;-89
2022/08/08 06:14:12;;;;;;;13.38;6.05;;;;;;;;;;4814540;29;20488;-83
2022/08/08 06:16:40;;;;;;;9.23;5.93;;;;;;;;;;4824638;29;20070;-88
2022/08/08 06:19:08;;;;;;;11.80;5.85;;;;;;;;;;4823353;29;20054;-88
2022/08/08 06:21:36;;;;;;;16.67;6.57;;;;;;;;;;4825558;29;20038;-90
2022/08/08 06:24:05;;;;;;;12.00;5.53;;;;;;;;;;4814645;29;20050;-88
2022/08/08 06:26:36;;;;;;;8.18;5.72;;;;;;;;;;4828177;29;20034;-89
2022/08/08 06:29:10;;;;;;;11.02;6.13;;;;;;;;;;4821114;29;20081;-88
2022/08/08 06:31:37;;;;;;;9.13;5.55;;;;;;;;;;4820102;29;20093;-88
2022/08/08 06:34:16;;;;;;;11.43;6.18;;;;;;;;;;4822121;29;20055;-90
2022/08/08 06:36:43;;;;;;;10.63;5.53;;;;;;;;;;4820661;29;20042;-85
2022/08/08 06:39:11;;;;;;;13.80;5.35;;;;;;;;;;4823798;29;20049;-86
2022/08/08 06:41:41;;;;;;;8.85;5.00;;;;;;;;;;4823427;29;20109;-85
2022/08/08 06:44:10;;;;;;;9.98;4.93;;;;;;;;;;4817344;29;20047;-88
2022/08/08 06:46:37;;;;;;;14.75;6.10;;;;;;;;;;4823213;29;20050;-89
2022/08/08 06:49:04;;;;;;;10.40;5.38;;;;;;;;;;4822212;29;20042;-88
2022/08/08 06:51:30;;;;;;;11.88;5.10;;;;;;;;;;4824228;29;20511;-89
2022/08/08 06:54:01;;;;;;;11.95;5.00;;;;;;;;;;4822889;29;20504;-89
2022/08/08 06:56:29;;;;;;;12.50;5.03;;;;;;;;;;4807982;29;20046;-90
2022/08/08 06:58:55;;;;;;;11.25;4.88;;;;;;;;;;4802845;29;20047;-90
2022/08/08 07:01:24;;;;;;;6.95;4.25;;;;;;;;;;4805118;29;20043;-90
2022/08/08 07:03:51;;;;;;;10.88;4.82;;;;;;;;;;4805119;29;20122;-88
2022/08/08 07:06:19;;;;;;;7.97;4.65;;;;;;;;;;4789499;29;20051;-84
2022/08/08 07:08:47;;;;;;;9.45;4.47;;;;;;;;;;4802010;29;20038;-82
2022/08/08 07:11:21;;;;;;;8.68;4.38;;;;;;;;;;4790836;29;20055;-89
2022/08/08 07:13:50;;;;;;;8.68;4.55;;;;;;;;;;4806439;29;20508;-90
2022/08/08 07:16:17;;;;;;;6.55;4.50;;;;;;;;;;4806706;29;20054;-91
2022/08/08 07:18:49;;;;;;;9.10;4.75;;;;;;;;;;4805845;29;20053;-89
2022/08/08 07:21:17;;;;;;;5.35;4.50;;;;;;;;;;4802876;29;20045;-90
2022/08/08 07:23:46;;;;;;;9.95;5.10;;;;;;;;;;4803067;29;20114;-91
2022/08/08 07:26:12;;;;;;;12.43;5.28;;;;;;;;;;4804969;29;20081;-91
2022/08/08 07:28:38;;;;;;;10.57;4.35;;;;;;;;;;4790659;29;20070;-83
2022/08/08 07:31:05;;;;;;;10.60;4.60;;;;;;;;;;4803842;29;20473;-87
2022/08/08 07:33:31;;;;;;;11.55;4.90;;;;;;;;;;4789070;29;20051;-89
2022/08/08 07:35:59;;;;;;;9.68;5.00;;;;;;;;;;4790295;29;20034;-87
2022/08/08 07:38:27;;;;;;;11.35;4.53;;;;;;;;;;4787169;29;20059;-89
2022/08/08 07:40:59;;;;;;;8.48;3.85;;;;;;;;;;4803200;29;20047;-89
2022/08/08 07:43:26;;;;;;;9.65;3.92;;;;;;;;;;4789314;29;20548;-92
2022/08/08 07:45:52;;;;;;;5.75;3.47;;;;;;;;;;4773311;29;20136;-87
2022/08/08 07:48:18;;;;;;;9.65;3.20;;;;;;;;;;4805753;29;20109;-90
2022/08/08 07:50:45;;;;;;;5.38;2.40;;;;;;;;;;4804918;29;20042;-91
2022/08/08 07:53:18;;;;;;;5.43;2.20;;;;;;;;;;4806763;29;20119;-86
2022/08/08 07:55:47;;;;;;;5.83;1.93;;;;;;;;;;4810982;29;20059;-93
2022/08/08 07:58:20;;;;;;;9.43;2.42;;;;;;;;;;4814879;29;20319;-92
2022/08/08 08:00:56;;;;;;;15.23;2.92;;;;;;;;;;4813079;29;20043;-92
2022/08/08 08:03:31;;;;;;;8.70;2.08;;;;;;;;;;4813486;29;20092;-93
2022/08/08 08:05:58;;;;;;;4.63;1.80;;;;;;;;;;4807874;29;20125;-93
2022/08/08 08:08:39;;;;;;;9.77;2.50;;;;;;;;;;4812202;29;20047;-90
2022/08/08 08:11:11;;;;;;;9.68;2.05;;;;;;;;;;4814356;29;20079;-89
2022/08/08 08:13:51;;;;;;;6.82;2.08;;;;;;;;;;4807056;29;20042;-89
2022/08/08 08:16:25;;;;;;;5.57;2.58;;;;;;;;;;4810437;29;20058;-90
2022/08/08 08:18:51;;;;;;;;;;;;;;;;;;4790972;29;20134;-89
2022/08/08 08:21:18;;;;;;;4.53;1.83;;;;;;;;;;4809227;29;19985;-90
2022/08/08 08:23:44;;;;;;;5.72;1.52;;;;;;;;;;4805971;29;20046;-93
2022/08/08 08:26:15;;;;;;;3.67;1.63;;;;;;;;;;4804342;29;20047;-90
2022/08/08 08:28:43;;;;;;;3.55;1.48;;;;;;;;;;4820262;29;20061;-89
2022/08/08 08:31:09;;;;;;;4.45;3.15;;;;;;;;;;4819223;29;20051;-87
2022/08/08 08:33:37;;;;;;;5.13;1.90;;;;;;;;;;4804447;29;20149;-87
2022/08/08 08:36:06;;;;;;;7.53;1.90;;;;;;;;;;4821675;29;20066;-90
2022/08/08 08:38:32;;;;;;;3.88;1.70;;;;;;;;;;4815612;29;20059;-87
2022/08/08 08:40:59;;;;;;;6.55;2.47;;;;;;;;;;4816311;29;20047;-89
2022/08/08 08:43:25;;;;;;;5.13;1.55;;;;;;;;;;4807331;29;20054;-91
2022/08/08 08:45:53;;;;;;;6.00;1.65;;;;;;;;;;4802679;29;20058;-88
2022/08/08 08:48:19;;;;;;;5.43;1.20;;;;;;;;;;4795620;29;20046;-87
2022/08/08 08:50:47;;;;;;;5.25;1.60;;;;;;;;;;4802236;29;20049;-89
2022/08/08 08:53:14;;;;;;;4.03;0.98;;;;;;;;;;4788952;29;20213;-88
2022/08/08 08:55:41;;;;;;;6.15;1.38;;;;;;;;;;4812512;29;20043;-91
2022/08/08 08:58:19;;;;;;;3.08;1.20;;;;;;;;;;4813219;29;20046;-91
2022/08/08 09:00:47;;;;;;;2.90;1.20;;;;;;;;;;4800067;29;20062;-91
2022/08/08 09:03:13;;;;;;;3.15;0.98;;;;;;;;;;4794866;29;20055;-88
2022/08/08 09:05:58;;;;;;;5.88;1.30;;;;;;;;;;4778494;29;20185;-87
2022/08/08 09:08:26;;;;;;;3.70;1.63;;;;;;;;;;4805538;29;20047;-90
2022/08/08 09:10:52;;;;;;;4.20;1.20;;;;;;;;;;4794117;29;20561;-91
2022/08/08 09:13:20;;;;;;;3.47;1.00;;;;;;;;;;4794737;29;20082;-87
2022/08/08 09:15:47;;;;;;;1.95;1.15;;;;;;;;;;4788310;29;20129;-87
2022/08/08 09:18:16;;;;;;;1.13;0.88;;;;;;;;;;4805094;29;20161;-91
2022/08/08 09:20:44;;;;;;;2.90;1.42;;;;;;;;;;4817494;29;20054;-91
2022/08/08 09:23:10;;;;;;;3.67;1.17;;;;;;;;;;4808484;29;20130;-90
2022/08/08 09:25:37;;;;;;;4.22;1.50;;;;;;;;;;4792275;29;20141;-91
2022/08/08 09:28:04;;;;;;;7.57;1.50;;;;;;;;;;4821682;29;20095;-91
2022/08/08 09:30:31;;;;;;;5.38;1.33;;;;;;;;;;4812986;29;20054;-90
2022/08/08 09:33:02;;;;;;;3.10;1.20;;;;;;;;;;4809288;29;20043;-91
2022/08/08 09:35:34;;;;;;;6.70;1.40;;;;;;;;;;4794779;29;20201;-90
2022/08/08 09:38:02;;;;;;;3.70;1.20;;;;;;;;;;4809683;29;20035;-89
2022/08/08 09:40:30;;;;;;;7.10;1.30;;;;;;;;;;4794954;29;20043;-87
2022/08/08 09:43:17;;;;;;;3.92;1.25;;;;;;;;;;4792369;29;20047;-91
2022/08/08 09:45:53;;;;;;;3.90;1.33;;;;;;;;;;4794226;29;20075;-87
2022/08/08 09:48:19;;;;;;;2.97;1.00;;;;;;;;;;4795279;29;20395;-87
2022/08/08 09:50:46;;;;;;;5.25;1.40;;;;;;;;;;4810788;29;20076;-87
2022/08/08 09:53:14;;;;;;;5.95;1.33;;;;;;;;;;4813034;29;20058;-87
2022/08/08 09:55:41;;;;;;;1.95;0.95;;;;;;;;;;4808342;29;20039;-89
2022/08/08 09:58:08;;;;;;;2.97;1.15;;;;;;;;;;4810994;29;20062;-88
2022/08/08 10:00:36;;;;;;;3.65;0.80;;;;;;;;;;4811220;29;20082;-90
2022/08/08 10:03:04;;;;;;;3.90;1.20;;;;;;;;;;4810669;29;20066;-91
2022/08/08 10:05:33;;;;;;;3.65;1.45;;;;;;;;;;4805863;29;20053;-89
2022/08/08 10:08:00;;;;;;;4.43;1.42;;;;;;;;;;4804116;29;20043;-89
2022/08/08 10:10:29;;;;;;;5.05;1.25;;;;;;;;;;4787033;29;20047;-89
2022/08/08 10:12:55;;;;;;;3.97;1.30;;;;;;;;;;4807417;29;20047;-89
2022/08/08 10:15:23;;;;;;;4.78;1.27;;;;;;;;;;4811211;29;20124;-89
2022/08/08 10:17:50;;;;;;;5.80;1.48;;;;;;;;;;4809472;29;20064;-89
2022/08/08 10:20:16;;;;;;;6.60;1.10;;;;;;;;;;4798022;29;20115;-88
2022/08/08 10:22:47;;;;;;;5.35;1.60;;;;;;;;;;4796819;29;20419;-89
2022/08/08 10:25:15;;;;;;;3.75;1.00;;;;;;;;;;4805079;29;20628;-90
2022/08/08 10:27:42;;;;;;;2.50;1.13;;;;;;;;;;4812234;29;20054;-90
2022/08/08 10:30:09;;;;;;;8.23;1.30;;;;;;;;;;4809389;29;20046;-90
2022/08/08 10:32:40;;;;;;;3.55;1.40;;;;;;;;;;4773254;29;20560;-87
2022/08/08 10:35:07;;;;;;;3.08;1.27;;;;;;;;;;4806334;29;20099;-88
2022/08/08 10:37:34;;;;;;;3.45;1.40;;;;;;;;;;4800203;29;20077;-88
2022/08/08 10:40:01;;;;;;;3.55;1.00;;;;;;;;;;4809676;29;20537;-87
2022/08/08 10:42:34;;;;;;;5.18;1.15;;;;;;;;;;4786040;29;20043;-90
2022/08/08 10:45:02;;;;;;;1.92;0.90;;;;;;;;;;4800360;29;20054;-89
2022/08/08 10:47:28;;;;;;;4.40;1.30;;;;;;;;;;4810128;29;20799;-91
2022/08/08 10:49:57;;;;;;;5.63;0.93;;;;;;;;;;4803149;29;20068;-91
2022/08/08 10:52:34;;;;;;;4.40;1.20;;;;;;;;;;4779079;29;20043;-92
2022/08/08 10:55:02;;;;;;;4.03;1.55;;;;;;;;;;4777891;29;20063;-90
2022/08/08 10:57:29;;;;;;;2.33;1.30;;;;;;;;;;5037839;24;20032;-89
2022/08/08 10:59:57;;;;;;;3.97;1.13;;;;;;;;;;4799004;29;20101;-91
2022/08/08 11:02:45;;;;;;;4.45;1.23;;;;;;;;;;4814891;29;20054;-92
2022/08/08 11:05:12;;;;;;;4.32;1.30;;;;;;;;;;4821455;29;20050;-91
2022/08/08 11:07:42;;;;;;;3.88;1.42;;;;;;;;;;4843034;29;20190;-90
2022/08/08 11:10:12;;;;;;;3.88;1.27;;;;;;;;;;4849181;29;20045;-83
2022/08/08 11:12:51;;;;;;;3.30;1.17;;;;;;;;;;4811006;29;20071;-87
2022/08/08 11:15:19;;;;;;;4.47;1.30;;;;;;;;;;4834270;29;20449;-85
2022/08/08 11:17:46;;;;;;;2.42;1.10;;;;;;;;;;4836889;29;20511;-88
2022/08/08 11:20:14;;;;;;;3.67;1.23;;;;;;;;;;4830965;29;20060;-87
2022/08/08 11:22:41;;;;;;;3.08;1.08;;;;;;;;;;4830508;29;20476;-87
2022/08/08 11:25:09;;;;;;;2.88;1.13;;;;;;;;;;4831739;29;20038;-86
2022/08/08 11:27:37;;;;;;;5.55;1.60;;;;;;;;;;4841670;29;20081;-86
2022/08/08 11:30:08;;;;;;;4.57;1.00;;;;;;;;;;4832984;29;20053;-88
2022/08/08 11:35:52;;;;;;;3.35;0.93;;;;;;;;;;4874326;24;20077;-86
2022/08/08 11:41:49;;;;;;;5.65;1.38;;;;;;;;;;4859902;24;20069;-87
2022/08/08 11:47:26;;;;;;;3.75;1.25;;;;;;;;;;4835264;29;20058;-88
2022/08/08 11:50:21;;;;;;;3.45;1.20;;;;;;;;;;4819448;29;20055;-87
2022/08/08 11:52:51;;;;;;;4.50;1.42;;;;;;;;;;4808946;29;20057;-88
2022/08/08 11:55:17;;;;;;;4.47;1.40;;;;;;;;;;4817114;29;20050;-89
2022/08/08 11:57:44;;;;;;;2.92;1.23;;;;;;;;;;4815453;29;20057;-88
2022/08/08 12:00:48;;;;;;;3.25;1.17;;;;;;;;;;4813388;29;20075;-89
2022/08/08 12:06:12;;;;;;;5.72;1.38;;;;;;;;;;4846284;24;20114;-88
2022/08/08 12:12:03;;;;;;;2.30;0.80;;;;;;;;;;4766459;30;20102;-89
2022/08/08 12:14:32;;;;;;;2.85;1.48;;;;;;;;;;4758009;29;20055;-88
2022/08/08 12:16:58;;;;;;;2.03;0.90;;;;;;;;;;4808040;29;20415;-88
2022/08/08 12:19:28;;;;;;;4.88;1.38;;;;;;;;;;4796698;29;20047;-88
2022/08/08 12:22:13;;;;;;;3.00;1.10;;;;;;;;;;4785724;29;20078;-91
2022/08/08 12:24:48;;;;;;;3.25;1.08;;;;;;;;;;4800714;29;20381;-89
2022/08/08 12:27:28;;;;;;;;;;;;;;;;;;;;;
2022/08/08 12:30:14;;;;;;;3.03;1.40;;;;;;;;;;4834779;24;20099;-90
2022/08/08 12:32:41;;;;;;;4.70;1.20;;;;;;;;;;4793330;29;20476;-88
2022/08/08 12:35:08;;;;;;;4.97;1.10;;;;;;;;;;4811028;29;20085;-88
2022/08/08 12:40:46;;;;;;;3.40;1.02;;;;;;;;;;5047265;24;20069;-87
2022/08/08 12:43:14;;;;;;;2.20;1.10;;;;;;;;;;4796411;29;20066;-88
2022/08/08 12:45:41;;;;;;;4.93;1.00;;;;;;;;;;4822658;29;20058;-89
2022/08/08 12:48:18;;;;;;;2.10;1.20;;;;;;;;;;4828856;29;20061;-88
2022/08/08 12:50:46;;;;;;;2.90;0.90;;;;;;;;;;4834913;29;20073;-88
2022/08/08 12:56:34;;;;;;;2.25;1.10;;;;;;;;;;4957774;24;20064;-87
2022/08/08 12:59:01;;;;;;;4.40;1.35;;;;;;;;;;4816787;29;20057;-88
2022/08/08 13:01:36;;;;;;;3.00;1.17;;;;;;;;;;4829961;29;20053;-87
2022/08/08 13:04:16;;;;;;;3.22;1.20;;;;;;;;;;4816265;29;20118;-88
2022/08/08 13:06:59;;;;;;;2.58;1.30;;;;;;;;;;4837564;24;20086;-87
2022/08/08 13:09:32;;;;;;;4.63;2.10;;;;;;;;;;4825265;29;20049;-88
2022/08/08 13:11:58;;;;;;;3.57;1.00;;;;;;;;;;4837231;29;20038;-88
2022/08/08 13:14:51;;;;;;;2.70;0.90;;;;;;;;;;4825735;29;20056;-87
2022/08/08 13:17:26;;;;;;;3.38;0.88;;;;;;;;;;4804875;29;20622;-89
2022/08/08 13:19:53;;;;;;;3.53;1.00;;;;;;;;;;4820631;29;20070;-89
2022/08/08 13:22:20;;;;;;;6.40;1.20;;;;;;;;;;4803123;29;20043;-89
2022/08/08 13:30:35;;;;;;;2.55;1.10;;;;;;;;;;4839503;23;20050;-87
2022/08/08 13:33:02;;;;;;;3.13;0.98;;;;;;;;;;4799297;29;20058;-88
2022/08/08 13:35:29;;;;;;;2.88;1.23;;;;;;;;;;4798729;29;20046;-89
2022/08/08 13:38:14;;;;;;;2.38;1.20;;;;;;;;;;4801498;29;20053;-88
2022/08/08 13:40:42;;;;;;;3.42;1.45;;;;;;;;;;4806768;29;20057;-88
2022/08/08 13:43:08;;;;;;;5.68;1.48;;;;;;;;;;4803170;29;20053;-88
2022/08/08 13:45:35;;;;;;;4.60;1.35;;;;;;;;;;4814582;29;20985;-90
2022/08/08 13:51:24;;;;;;;4.10;1.63;;;;;;;;;;4826698;24;20061;-88
2022/08/08 15:20:04;;;;;;;3.00;1.10;;;;;;;;;;4834158;29;20081;-86
2022/08/08 15:22:37;;;;;;;4.13;1.03;;;;;;;;;;4843669;29;20055;-86
2022/08/08 15:25:24;;;;;;;3.53;1.10;;;;;;;;;;4838954;29;20339;-89
2022/08/08 15:27:50;;;;;;;3.10;1.02;;;;;;;;;;4850161;23;20685;-87
2022/08/08 16:28:00;;;;;;;3.60;0.90;;;;;;;;;;4831335;29;20076;-88
2022/08/08 16:30:26;;;;;;;3.08;0.93;;;;;;;;;;4822649;29;20427;-87
2022/08/08 16:33:17;;;;;;;4.03;0.95;;;;;;;;;;4823098;29;20074;-86
2022/08/08 16:35:43;;;;;;;3.53;1.20;;;;;;;;;;4825229;29;20046;-86
2022/08/08 16:51:46;;;;;;;2.53;0.80;;;;;;;;;;4809340;29;20066;-86
2022/08/08 16:54:43;;;;;;;3.63;0.98;;;;;;;;;;4811070;29;20187;-89
2022/08/08 17:21:29;;;;;;;2.53;0.70;;;;;;;;;;4818205;29;20805;-86
2022/08/08 17:23:56;;;;;;;3.95;1.00;;;;;;;;;;4804341;29;20055;-87
2022/08/08 17:36:43;;;;;;;3.25;1.00;;;;;;;;;;4829971;29;20119;-86
2022/08/08 17:39:13;;;;;;;5.50;1.23;;;;;;;;;;4797633;29;20596;-86
2022/08/08 17:41:48;;;;;;;3.58;1.17;;;;;;;;;;4830851;29;20050;-86
2022/08/08 17:44:16;;;;;;;3.92;1.05;;;;;;;;;;4826990;29;20154;-87
2022/08/08 17:49:18;;;;;;;2.92;0.98;;;;;;;;;;4862612;23;20062;-87
2022/08/08 17:51:54;;;;;;;5.13;1.00;;;;;;;;;;4821528;29;20129;-87
2022/08/08 17:57:36;;;;;;;4.00;0.98;;;;;;;;;;4816916;29;20050;-86
2022/08/08 18:00:21;;;;;;;4.22;0.93;;;;;;;;;;4806360;29;20110;-88
2022/08/08 18:02:49;;;;;;;2.15;0.80;;;;;;;;;;4833423;29;20109;-86
2022/08/08 18:05:15;;;;;;;3.45;0.90;;;;;;;;;;4816524;29;20048;-87
2022/08/08 18:08:06;;;;;;;2.58;1.10;;;;;;;;;;4830841;23;20054;-87
2022/08/08 18:11:00;;;;;;;2.65;0.88;;;;;;;;;;4844299;29;20125;-86
2022/08/08 18:19:06;;;;;;;2.42;0.80;;;;;;;;;;4824112;29;20050;-87
2022/08/08 18:21:45;;;;;;;3.08;1.00;;;;;;;;;;4822736;29;20073;-87
2022/08/08 18:24:11;;;;;;;6.05;1.35;;;;;;;;;;4825563;29;20069;-87
2022/08/08 18:26:41;;;;;;;1.80;0.70;;;;;;;;;;4822769;29;20042;-86
2022/08/08 18:29:07;;;;;;;6.45;1.33;;;;;;;;;;4823115;23;20065;-87
2022/08/08 18:31:43;;;;;;;3.67;1.00;;;;;;;;;;4786627;29;20077;-85
2022/08/08 18:34:09;;;;;;;4.07;1.58;;;;;;;;;;4802273;29;20042;-86
2022/08/08 18:39:42;;;;;;;4.45;1.38;;;;;;;;;;4795128;29;20047;-86
2022/08/08 18:42:20;;;;;;;7.70;1.23;;;;;;;;;;4761896;29;20099;-87
2022/08/08 18:45:11;;;;;;;5.10;1.42;;;20.00;99.90;;;;;;4809737;29;20173;-86
2022/08/08 18:47:37;;;;;;;5.03;1.55;;;;;;;;;;4790061;29;20047;-88
2022/08/08 18:50:10;;;;;;;5.65;1.50;;;;;;;;;;4797359;29;20048;-84
2022/08/08 18:52:47;;;;;;;4.30;1.20;;;;;;;;;;4801062;29;20199;-86
2022/08/08 18:58:12;;;;;;;5.75;1.23;;;;;;;;;;4791724;29;20492;-87
2022/08/08 19:00:38;;;;;;;3.33;1.00;;;;;;;;;;4811525;29;20066;-88
2022/08/08 19:03:14;;;;;;;3.70;1.25;;;;;;;;;;4777684;29;20056;-86
2022/08/08 19:05:49;;;;;;;3.70;1.30;;;;;;;;;;4777631;29;20055;-86
2022/08/08 19:08:37;;;;;;;2.10;1.02;;;19.50;99.90;;;;;;4780409;29;20051;-89
2022/08/08 19:17:08;;;;;;;5.90;1.90;;;;;;;;;;4751875;30;20144;-87